createdAt,value
2018-08-21T00:00:24.443Z,936.73
2018-08-21T00:01:24.468Z,936.78
2018-08-21T00:02:24.600Z,936.74
2018-08-21T00:03:24.618Z,936.74
2018-08-21T00:04:24.669Z,936.77
2018-08-21T00:05:24.517Z,936.77
2018-08-21T00:06:24.534Z,936.79
2018-08-21T00:07:24.669Z,936.83
2018-08-21T00:08:24.685Z,936.86
2018-08-21T00:09:24.750Z,936.83
2018-08-21T00:10:24.584Z,936.84
2018-08-21T00:11:24.875Z,936.83
2018-08-21T00:12:24.617Z,936.81
2018-08-21T00:13:24.628Z,936.87
2018-08-21T00:14:24.765Z,936.83
2018-08-21T00:15:24.653Z,936.84
2018-08-21T00:16:24.998Z,936.84
2018-08-21T00:17:24.688Z,936.89
2018-08-21T00:18:24.826Z,936.92
2018-08-21T00:19:24.710Z,936.97
2018-08-21T00:20:24.726Z,936.94
2018-08-21T00:21:24.886Z,936.98
2018-08-21T00:22:24.755Z,936.96
2018-08-21T00:23:24.889Z,936.92
2018-08-21T00:24:24.783Z,936.98
2018-08-21T00:25:24.918Z,936.95
2018-08-21T00:26:24.966Z,936.96
2018-08-21T00:27:24.860Z,936.91
2018-08-21T00:28:24.846Z,936.96
2018-08-21T00:29:24.846Z,936.98
2018-08-21T00:30:24.982Z,936.99
2018-08-21T00:31:24.961Z,936.99
2018-08-21T00:32:25.008Z,937.01
2018-08-21T00:33:24.901Z,937.06
2018-08-21T00:34:25.038Z,937.06
2018-08-21T00:35:24.923Z,937.03
2018-08-21T00:36:25.119Z,937.04
2018-08-21T00:37:25.077Z,937.03
2018-08-21T00:38:24.975Z,937.05
2018-08-21T00:39:24.978Z,937.00
2018-08-21T00:40:25.267Z,937.04
2018-08-21T00:41:25.011Z,937.02
2018-08-21T00:42:25.017Z,937.03
2018-08-21T00:43:25.156Z,937.00
2018-08-21T00:44:25.044Z,936.97
2018-08-21T00:45:25.230Z,937.02
2018-08-21T00:46:25.085Z,937.01
2018-08-21T00:47:25.246Z,937.03
2018-08-21T00:48:25.137Z,937.04
2018-08-21T00:49:25.240Z,937.03
2018-08-21T00:50:25.251Z,937.08
2018-08-21T00:51:25.139Z,937.04
2018-08-21T00:52:25.204Z,937.03
2018-08-21T00:53:25.395Z,937.08
2018-08-21T00:54:25.319Z,937.07
2018-08-21T00:55:25.210Z,937.10
2018-08-21T00:56:25.199Z,937.12
2018-08-21T00:57:25.223Z,937.12
2018-08-21T00:58:25.385Z,937.10
2018-08-21T00:59:25.253Z,937.09
2018-08-21T01:00:25.381Z,937.14
2018-08-21T01:01:25.270Z,937.11
2018-08-21T01:02:25.284Z,937.11
2018-08-21T01:03:25.302Z,937.12
2018-08-21T01:04:25.504Z,937.11
2018-08-21T01:05:25.322Z,937.14
2018-08-21T01:06:25.340Z,937.13
2018-08-21T01:07:25.474Z,937.08
2018-08-21T01:08:25.358Z,937.10
2018-08-21T01:09:25.480Z,937.07
2018-08-21T01:10:25.512Z,937.10
2018-08-21T01:11:25.410Z,937.09
2018-08-21T01:12:25.540Z,937.07
2018-08-21T01:13:25.559Z,937.06
2018-08-21T01:14:25.633Z,937.10
2018-08-21T01:15:25.458Z,937.10
2018-08-21T01:16:25.510Z,937.08
2018-08-21T01:17:25.482Z,937.12
2018-08-21T01:18:25.491Z,937.11
2018-08-21T01:19:25.603Z,937.16
2018-08-21T01:20:25.516Z,937.15
2018-08-21T01:21:25.659Z,937.14
2018-08-21T01:22:25.668Z,937.12
2018-08-21T01:23:25.553Z,937.16
2018-08-21T01:24:25.667Z,937.19
2018-08-21T01:25:25.581Z,937.17
2018-08-21T01:26:25.595Z,937.19
2018-08-21T01:27:25.622Z,937.22
2018-08-21T01:28:25.751Z,937.20
2018-08-21T01:29:25.814Z,937.21
2018-08-21T01:30:25.657Z,937.22
2018-08-21T01:31:25.672Z,937.19
2018-08-21T01:32:25.764Z,937.20
2018-08-21T01:33:25.700Z,937.20
2018-08-21T01:34:25.924Z,937.20
2018-08-21T01:35:25.717Z,937.20
2018-08-21T01:36:25.727Z,937.23
2018-08-21T01:37:25.869Z,937.23
2018-08-21T01:38:25.879Z,937.21
2018-08-21T01:39:26.045Z,937.19
2018-08-21T01:40:25.904Z,937.18
2018-08-21T01:41:25.791Z,937.22
2018-08-21T01:42:25.933Z,937.17
2018-08-21T01:43:25.945Z,937.19
2018-08-21T01:44:26.105Z,937.18
2018-08-21T01:45:25.844Z,937.17
2018-08-21T01:46:25.869Z,937.17
2018-08-21T01:47:25.915Z,937.15
2018-08-21T01:48:25.887Z,937.21
2018-08-21T01:49:26.173Z,937.20
2018-08-21T01:50:26.039Z,937.17
2018-08-21T01:51:25.914Z,937.21
2018-08-21T01:52:25.933Z,937.19
2018-08-21T01:53:26.084Z,937.24
2018-08-21T01:54:26.184Z,937.18
2018-08-21T01:55:26.104Z,937.25
2018-08-21T01:56:26.109Z,937.26
2018-08-21T01:57:26.003Z,937.26
2018-08-21T01:58:26.141Z,937.25
2018-08-21T01:59:26.199Z,937.21
2018-08-21T02:00:26.167Z,937.26
2018-08-21T02:01:26.051Z,937.24
2018-08-21T02:02:26.071Z,937.20
2018-08-21T02:03:26.205Z,937.20
2018-08-21T02:04:26.235Z,937.18
2018-08-21T02:05:26.103Z,937.17
2018-08-21T02:06:26.129Z,937.17
2018-08-21T02:07:26.131Z,937.12
2018-08-21T02:08:26.140Z,937.09
2018-08-21T02:09:26.308Z,937.09
2018-08-21T02:10:26.294Z,937.10
2018-08-21T02:11:26.300Z,937.06
2018-08-21T02:12:26.186Z,937.10
2018-08-21T02:13:26.216Z,937.13
2018-08-21T02:14:26.448Z,937.12
2018-08-21T02:15:26.227Z,937.10
2018-08-21T02:16:26.252Z,937.11
2018-08-21T02:17:26.384Z,937.12
2018-08-21T02:18:26.394Z,937.09
2018-08-21T02:19:26.562Z,937.12
2018-08-21T02:20:26.421Z,937.11
2018-08-21T02:21:26.436Z,937.10
2018-08-21T02:22:26.324Z,937.12
2018-08-21T02:23:26.328Z,937.08
2018-08-21T02:24:26.495Z,937.08
2018-08-21T02:25:26.389Z,937.10
2018-08-21T02:26:26.383Z,937.06
2018-08-21T02:27:26.512Z,937.05
2018-08-21T02:28:26.516Z,937.03
2018-08-21T02:29:26.455Z,936.99
2018-08-21T02:30:26.459Z,936.97
2018-08-21T02:31:26.432Z,936.94
2018-08-21T02:32:26.573Z,936.94
2018-08-21T02:33:26.578Z,936.95
2018-08-21T02:34:26.592Z,936.90
2018-08-21T02:35:26.484Z,936.94
2018-08-21T02:36:26.615Z,936.90
2018-08-21T02:37:26.515Z,936.89
2018-08-21T02:38:26.798Z,936.92
2018-08-21T02:39:26.539Z,936.89
2018-08-21T02:40:26.670Z,936.88
2018-08-21T02:41:26.686Z,936.87
2018-08-21T02:42:26.570Z,936.86
2018-08-21T02:43:26.737Z,936.86
2018-08-21T02:44:26.723Z,936.85
2018-08-21T02:45:26.596Z,936.88
2018-08-21T02:46:26.622Z,936.89
2018-08-21T02:47:26.622Z,936.88
2018-08-21T02:48:26.752Z,936.87
2018-08-21T02:49:26.658Z,936.88
2018-08-21T02:50:26.792Z,936.89
2018-08-21T02:51:26.681Z,936.89
2018-08-21T02:52:26.707Z,936.90
2018-08-21T02:53:26.868Z,936.89
2018-08-21T02:54:26.840Z,936.87
2018-08-21T02:55:26.743Z,936.88
2018-08-21T02:56:26.749Z,936.86
2018-08-21T02:57:26.757Z,936.85
2018-08-21T02:58:26.918Z,936.85
2018-08-21T02:59:26.782Z,936.84
2018-08-21T03:00:26.802Z,936.77
2018-08-21T03:01:26.800Z,936.77
2018-08-21T03:02:26.941Z,936.78
2018-08-21T03:03:26.923Z,936.76
2018-08-21T03:04:26.961Z,936.80
2018-08-21T03:05:26.848Z,936.78
2018-08-21T03:06:26.865Z,936.79
2018-08-21T03:07:26.880Z,936.80
2018-08-21T03:08:27.033Z,936.76
2018-08-21T03:09:27.028Z,936.82
2018-08-21T03:10:26.912Z,936.80
2018-08-21T03:11:27.088Z,936.79
2018-08-21T03:12:26.935Z,936.81
2018-08-21T03:13:27.223Z,936.75
2018-08-21T03:14:26.966Z,936.81
2018-08-21T03:15:27.014Z,936.78
2018-08-21T03:16:26.986Z,936.81
2018-08-21T03:17:26.997Z,936.80
2018-08-21T03:18:27.160Z,936.82
2018-08-21T03:19:27.025Z,936.75
2018-08-21T03:20:27.027Z,936.84
2018-08-21T03:21:27.057Z,936.79
2018-08-21T03:22:27.068Z,936.83
2018-08-21T03:23:27.247Z,936.82
2018-08-21T03:24:27.082Z,936.81
2018-08-21T03:25:27.089Z,936.76
2018-08-21T03:26:27.256Z,936.79
2018-08-21T03:27:27.237Z,936.78
2018-08-21T03:28:27.251Z,936.74
2018-08-21T03:29:27.144Z,936.75
2018-08-21T03:30:27.163Z,936.72
2018-08-21T03:31:27.309Z,936.71
2018-08-21T03:32:27.208Z,936.72
2018-08-21T03:33:27.235Z,936.69
2018-08-21T03:34:27.203Z,936.67
2018-08-21T03:35:27.203Z,936.64
2018-08-21T03:36:27.501Z,936.65
2018-08-21T03:37:27.236Z,936.64
2018-08-21T03:38:27.253Z,936.62
2018-08-21T03:39:27.263Z,936.64
2018-08-21T03:40:27.258Z,936.62
2018-08-21T03:41:27.556Z,936.59
2018-08-21T03:42:27.415Z,936.59
2018-08-21T03:43:27.302Z,936.58
2018-08-21T03:44:27.320Z,936.54
2018-08-21T03:45:27.328Z,936.52
2018-08-21T03:46:27.621Z,936.50
2018-08-21T03:47:27.495Z,936.48
2018-08-21T03:48:27.362Z,936.48
2018-08-21T03:49:27.498Z,936.43
2018-08-21T03:50:27.514Z,936.43
2018-08-21T03:51:27.594Z,936.43
2018-08-21T03:52:27.409Z,936.43
2018-08-21T03:53:27.544Z,936.43
2018-08-21T03:54:27.563Z,936.42
2018-08-21T03:55:27.436Z,936.42
2018-08-21T03:56:27.636Z,936.40
2018-08-21T03:57:27.620Z,936.44
2018-08-21T03:58:27.486Z,936.40
2018-08-21T03:59:27.531Z,936.41
2018-08-21T04:00:27.524Z,936.40
2018-08-21T04:01:27.513Z,936.36
2018-08-21T04:02:27.961Z,936.34
2018-08-21T04:03:27.553Z,936.31
2018-08-21T04:04:27.681Z,936.32
2018-08-21T04:05:27.577Z,936.28
2018-08-21T04:06:27.612Z,936.27
2018-08-21T04:07:27.635Z,936.22
2018-08-21T04:08:27.828Z,936.21
2018-08-21T04:09:27.733Z,936.19
2018-08-21T04:10:27.750Z,936.15
2018-08-21T04:11:27.656Z,936.22
2018-08-21T04:12:27.770Z,936.18
2018-08-21T04:13:27.807Z,936.16
2018-08-21T04:14:27.792Z,936.17
2018-08-21T04:15:27.679Z,936.19
2018-08-21T04:16:27.691Z,936.15
2018-08-21T04:17:27.832Z,936.16
2018-08-21T04:18:27.873Z,936.18
2018-08-21T04:19:27.731Z,936.17
2018-08-21T04:20:27.737Z,936.17
2018-08-21T04:21:27.879Z,936.19
2018-08-21T04:22:27.769Z,936.17
2018-08-21T04:23:27.977Z,936.17
2018-08-21T04:24:27.922Z,936.20
2018-08-21T04:25:27.800Z,936.18
2018-08-21T04:26:27.820Z,936.19
2018-08-21T04:27:27.819Z,936.22
2018-08-21T04:28:27.885Z,936.17
2018-08-21T04:29:27.969Z,936.17
2018-08-21T04:30:28.002Z,936.12
2018-08-21T04:31:27.866Z,936.08
2018-08-21T04:32:27.898Z,936.05
2018-08-21T04:33:28.020Z,936.08
2018-08-21T04:34:28.024Z,936.06
2018-08-21T04:35:27.921Z,936.16
2018-08-21T04:36:28.131Z,936.18
2018-08-21T04:37:27.937Z,936.16
2018-08-21T04:38:27.942Z,936.16
2018-08-21T04:39:28.083Z,936.15
2018-08-21T04:40:27.976Z,936.15
2018-08-21T04:41:28.260Z,936.09
2018-08-21T04:42:28.122Z,936.04
2018-08-21T04:43:28.136Z,936.02
2018-08-21T04:44:28.146Z,935.99
2018-08-21T04:45:28.030Z,936.03
2018-08-21T04:46:28.341Z,936.03
2018-08-21T04:47:28.073Z,936.05
2018-08-21T04:48:28.192Z,936.04
2018-08-21T04:49:28.078Z,936.04
2018-08-21T04:50:28.098Z,936.05
2018-08-21T04:51:28.245Z,936.09
2018-08-21T04:52:28.249Z,936.09
2018-08-21T04:53:28.122Z,936.05
2018-08-21T04:54:28.256Z,936.11
2018-08-21T04:55:28.150Z,936.09
2018-08-21T04:56:28.256Z,936.12
2018-08-21T04:57:28.170Z,936.13
2018-08-21T04:58:28.314Z,936.08
2018-08-21T04:59:28.321Z,936.08
2018-08-21T05:00:28.202Z,936.05
2018-08-21T05:01:28.380Z,936.02
2018-08-21T05:02:28.226Z,936.01
2018-08-21T05:03:28.259Z,935.98
2018-08-21T05:04:28.242Z,935.93
2018-08-21T05:05:28.387Z,935.94
2018-08-21T05:06:28.527Z,935.91
2018-08-21T05:07:28.411Z,935.88
2018-08-21T05:08:28.416Z,935.90
2018-08-21T05:09:28.309Z,935.86
2018-08-21T05:10:28.314Z,935.86
2018-08-21T05:11:28.607Z,935.90
2018-08-21T05:12:28.348Z,935.89
2018-08-21T05:13:28.477Z,935.88
2018-08-21T05:14:28.365Z,935.85
2018-08-21T05:15:28.501Z,935.84
2018-08-21T05:16:28.554Z,935.79
2018-08-21T05:17:28.527Z,935.81
2018-08-21T05:18:28.415Z,935.80
2018-08-21T05:19:28.423Z,935.81
2018-08-21T05:20:28.436Z,935.82
2018-08-21T05:21:28.721Z,935.84
2018-08-21T05:22:28.463Z,935.81
2018-08-21T05:23:28.593Z,935.81
2018-08-21T05:24:28.477Z,935.87
2018-08-21T05:25:28.488Z,935.83
2018-08-21T05:26:28.781Z,935.85
2018-08-21T05:27:28.507Z,935.87
2018-08-21T05:28:28.586Z,935.87
2018-08-21T05:29:28.542Z,935.90
2018-08-21T05:30:28.545Z,935.89
2018-08-21T05:31:28.783Z,935.86
2018-08-21T05:32:28.573Z,935.89
2018-08-21T05:33:28.707Z,935.84
2018-08-21T05:34:28.716Z,935.82
2018-08-21T05:35:28.730Z,935.81
2018-08-21T05:36:28.766Z,935.78
2018-08-21T05:37:28.750Z,935.80
2018-08-21T05:38:28.636Z,935.76
2018-08-21T05:39:28.651Z,935.78
2018-08-21T05:40:28.784Z,935.77
2018-08-21T05:41:28.827Z,935.77
2018-08-21T05:42:28.683Z,935.74
2018-08-21T05:43:28.822Z,935.69
2018-08-21T05:44:28.709Z,935.73
2018-08-21T05:45:28.840Z,935.67
2018-08-21T05:46:28.883Z,935.68
2018-08-21T05:47:28.866Z,935.66
2018-08-21T05:48:28.750Z,935.69
2018-08-21T05:49:28.893Z,935.68
2018-08-21T05:50:28.776Z,935.71
2018-08-21T05:51:28.978Z,935.68
2018-08-21T05:52:28.809Z,935.69
2018-08-21T05:53:28.808Z,935.64
2018-08-21T05:54:28.943Z,935.66
2018-08-21T05:55:29.055Z,935.64
2018-08-21T05:56:28.998Z,935.63
2018-08-21T05:57:28.857Z,935.62
2018-08-21T05:58:28.863Z,935.61
2018-08-21T05:59:29.007Z,935.57
2018-08-21T06:00:29.011Z,935.58
2018-08-21T06:01:29.051Z,935.59
2018-08-21T06:02:29.040Z,935.61
2018-08-21T06:03:29.053Z,935.58
2018-08-21T06:04:29.060Z,935.59
2018-08-21T06:05:28.951Z,935.56
2018-08-21T06:06:28.958Z,935.60
2018-08-21T06:07:29.246Z,935.60
2018-08-21T06:08:28.983Z,935.59
2018-08-21T06:09:28.992Z,935.55
2018-08-21T06:10:29.001Z,935.55
2018-08-21T06:11:29.146Z,935.54
2018-08-21T06:12:29.081Z,935.49
2018-08-21T06:13:29.170Z,935.48
2018-08-21T06:14:29.056Z,935.49
2018-08-21T06:15:29.069Z,935.47
2018-08-21T06:16:29.085Z,935.48
2018-08-21T06:17:29.310Z,935.47
2018-08-21T06:18:29.107Z,935.48
2018-08-21T06:19:29.235Z,935.43
2018-08-21T06:20:29.245Z,935.46
2018-08-21T06:21:29.138Z,935.45
2018-08-21T06:22:29.426Z,935.45
2018-08-21T06:23:29.165Z,935.43
2018-08-21T06:24:29.292Z,935.45
2018-08-21T06:25:29.185Z,935.47
2018-08-21T06:26:29.193Z,935.47
2018-08-21T06:27:29.355Z,935.46
2018-08-21T06:28:29.218Z,935.45
2018-08-21T06:29:29.237Z,935.43
2018-08-21T06:30:29.234Z,935.47
2018-08-21T06:31:29.267Z,935.44
2018-08-21T06:32:29.535Z,935.49
2018-08-21T06:33:29.278Z,935.44
2018-08-21T06:34:29.292Z,935.46
2018-08-21T06:35:29.293Z,935.46
2018-08-21T06:36:29.321Z,935.49
2018-08-21T06:37:29.518Z,935.49
2018-08-21T06:38:29.332Z,935.46
2018-08-21T06:39:29.351Z,935.45
2018-08-21T06:40:29.477Z,935.45
2018-08-21T06:41:29.494Z,935.42
2018-08-21T06:42:29.526Z,935.42
2018-08-21T06:43:29.390Z,935.41
2018-08-21T06:44:29.417Z,935.40
2018-08-21T06:45:29.539Z,935.44
2018-08-21T06:46:29.471Z,935.46
2018-08-21T06:47:29.540Z,935.46
2018-08-21T06:48:29.572Z,935.48
2018-08-21T06:49:29.464Z,935.42
2018-08-21T06:50:29.502Z,935.41
2018-08-21T06:51:29.509Z,935.39
2018-08-21T06:52:29.551Z,935.37
2018-08-21T06:53:29.505Z,935.34
2018-08-21T06:54:29.645Z,935.35
2018-08-21T06:55:29.641Z,935.35
2018-08-21T06:56:29.537Z,935.35
2018-08-21T06:57:29.554Z,935.33
2018-08-21T06:58:29.562Z,935.30
2018-08-21T06:59:29.591Z,935.29
2018-08-21T07:00:29.732Z,935.25
2018-08-21T07:01:29.717Z,935.21
2018-08-21T07:02:29.605Z,935.27
2018-08-21T07:03:29.617Z,935.24
2018-08-21T07:04:29.754Z,935.20
2018-08-21T07:05:29.808Z,935.24
2018-08-21T07:06:29.641Z,935.25
2018-08-21T07:07:29.659Z,935.22
2018-08-21T07:08:29.668Z,935.25
2018-08-21T07:09:29.807Z,935.24
2018-08-21T07:10:29.924Z,935.27
2018-08-21T07:11:29.833Z,935.24
2018-08-21T07:12:29.718Z,935.28
2018-08-21T07:13:29.731Z,935.26
2018-08-21T07:14:29.839Z,935.23
2018-08-21T07:15:29.932Z,935.23
2018-08-21T07:16:29.767Z,935.21
2018-08-21T07:17:29.778Z,935.19
2018-08-21T07:18:29.782Z,935.16
2018-08-21T07:19:29.802Z,935.14
2018-08-21T07:20:30.086Z,935.16
2018-08-21T07:21:29.840Z,935.16
2018-08-21T07:22:29.846Z,935.21
2018-08-21T07:23:29.976Z,935.20
2018-08-21T07:24:29.856Z,935.20
2018-08-21T07:25:29.968Z,935.15
2018-08-21T07:26:30.007Z,935.16
2018-08-21T07:27:30.019Z,935.14
2018-08-21T07:28:29.899Z,935.13
2018-08-21T07:29:29.913Z,935.21
2018-08-21T07:30:30.198Z,935.20
2018-08-21T07:31:29.939Z,935.27
2018-08-21T07:32:29.960Z,935.25
2018-08-21T07:33:29.978Z,935.24
2018-08-21T07:34:30.097Z,935.22
2018-08-21T07:35:30.120Z,935.25
2018-08-21T07:36:30.118Z,935.25
2018-08-21T07:37:30.004Z,935.26
2018-08-21T07:38:30.017Z,935.24
2018-08-21T07:39:30.172Z,935.22
2018-08-21T07:40:30.038Z,935.22
2018-08-21T07:41:30.056Z,935.18
2018-08-21T07:42:30.100Z,935.22
2018-08-21T07:43:30.076Z,935.22
2018-08-21T07:44:30.190Z,935.20
2018-08-21T07:45:30.219Z,935.18
2018-08-21T07:46:30.191Z,935.18
2018-08-21T07:47:30.129Z,935.14
2018-08-21T07:48:30.251Z,935.13
2018-08-21T07:49:30.289Z,935.17
2018-08-21T07:50:30.163Z,935.14
2018-08-21T07:51:30.168Z,935.16
2018-08-21T07:52:30.177Z,935.14
2018-08-21T07:53:30.179Z,935.18
2018-08-21T07:54:30.312Z,935.15
2018-08-21T07:55:30.213Z,935.14
2018-08-21T07:56:30.225Z,935.16
2018-08-21T07:57:30.359Z,935.14
2018-08-21T07:58:30.370Z,935.09
2018-08-21T07:59:30.534Z,935.09
2018-08-21T08:00:30.260Z,935.07
2018-08-21T08:01:30.401Z,935.07
2018-08-21T08:02:30.288Z,935.01
2018-08-21T08:03:30.300Z,935.02
2018-08-21T08:04:30.404Z,935.02
2018-08-21T08:05:30.327Z,935.03
2018-08-21T08:06:30.345Z,935.02
2018-08-21T08:07:30.349Z,935.02
2018-08-21T08:08:30.417Z,935.07
2018-08-21T08:09:30.516Z,935.08
2018-08-21T08:10:30.371Z,935.08
2018-08-21T08:11:30.415Z,935.11
2018-08-21T08:12:30.524Z,935.16
2018-08-21T08:13:30.441Z,935.15
2018-08-21T08:14:30.523Z,935.17
2018-08-21T08:15:30.560Z,935.19
2018-08-21T08:16:30.445Z,935.17
2018-08-21T08:17:30.580Z,935.17
2018-08-21T08:18:30.465Z,935.15
2018-08-21T08:19:30.758Z,935.16
2018-08-21T08:20:30.498Z,935.15
2018-08-21T08:21:30.532Z,935.12
2018-08-21T08:22:30.509Z,935.14
2018-08-21T08:23:30.602Z,935.12
2018-08-21T08:24:30.578Z,935.15
2018-08-21T08:25:30.554Z,935.17
2018-08-21T08:26:30.560Z,935.11
2018-08-21T08:27:30.583Z,935.12
2018-08-21T08:28:30.582Z,935.11
2018-08-21T08:29:30.691Z,935.10
2018-08-21T08:30:30.613Z,935.09
2018-08-21T08:31:30.620Z,935.08
2018-08-21T08:32:30.636Z,935.08
2018-08-21T08:33:30.632Z,935.05
2018-08-21T08:34:30.752Z,935.11
2018-08-21T08:35:30.786Z,935.11
2018-08-21T08:36:30.797Z,935.12
2018-08-21T08:37:30.676Z,935.09
2018-08-21T08:38:30.700Z,935.11
2018-08-21T08:39:30.982Z,935.12
2018-08-21T08:40:30.927Z,935.10
2018-08-21T08:41:30.861Z,935.12
2018-08-21T08:42:30.740Z,935.20
2018-08-21T08:43:30.872Z,935.14
2018-08-21T08:44:30.937Z,935.21
2018-08-21T08:45:30.762Z,935.25
2018-08-21T08:46:30.783Z,935.28
2018-08-21T08:47:30.836Z,935.30
2018-08-21T08:48:30.928Z,935.30
2018-08-21T08:49:30.962Z,935.31
2018-08-21T08:50:30.828Z,935.30
2018-08-21T08:51:30.839Z,935.33
2018-08-21T08:52:30.854Z,935.33
2018-08-21T08:53:30.978Z,935.33
2018-08-21T08:54:30.965Z,935.35
2018-08-21T08:55:31.002Z,935.38
2018-08-21T08:56:30.891Z,935.39
2018-08-21T08:57:30.948Z,935.37
2018-08-21T08:58:30.948Z,935.36
2018-08-21T08:59:31.145Z,935.38
2018-08-21T09:00:30.983Z,935.36
2018-08-21T09:01:30.956Z,935.36
2018-08-21T09:02:31.097Z,935.39
2018-08-21T09:03:31.088Z,935.42
2018-08-21T09:04:31.085Z,935.46
2018-08-21T09:05:30.991Z,935.48
2018-08-21T09:06:31.000Z,935.47
2018-08-21T09:07:31.132Z,935.49
2018-08-21T09:08:31.016Z,935.47
2018-08-21T09:09:31.260Z,935.49
2018-08-21T09:10:31.077Z,935.47
2018-08-21T09:11:31.046Z,935.51
2018-08-21T09:12:31.074Z,935.51
2018-08-21T09:13:31.199Z,935.58
2018-08-21T09:14:31.079Z,935.55
2018-08-21T09:15:31.155Z,935.57
2018-08-21T09:16:31.225Z,935.55
2018-08-21T09:17:31.211Z,935.59
2018-08-21T09:18:31.122Z,935.59
2018-08-21T09:19:31.262Z,935.58
2018-08-21T09:20:31.367Z,935.65
2018-08-21T09:21:31.161Z,935.65
2018-08-21T09:22:31.168Z,935.65
2018-08-21T09:23:31.175Z,935.62
2018-08-21T09:24:31.193Z,935.66
2018-08-21T09:25:31.308Z,935.67
2018-08-21T09:26:31.359Z,935.70
2018-08-21T09:27:31.372Z,935.66
2018-08-21T09:28:31.226Z,935.68
2018-08-21T09:29:31.300Z,935.65
2018-08-21T09:30:31.489Z,935.69
2018-08-21T09:32:31.275Z,935.59
2018-08-21T09:37:31.341Z,935.57
2018-08-21T09:38:31.381Z,935.56
2018-08-21T09:39:31.357Z,935.58
2018-08-21T09:40:31.408Z,935.60
2018-08-21T09:41:31.579Z,935.57
2018-08-21T09:42:31.383Z,935.58
2018-08-21T09:43:31.448Z,935.57
2018-08-21T09:44:31.532Z,935.58
2018-08-21T09:45:31.548Z,935.55
2018-08-21T09:46:31.523Z,935.58
2018-08-21T09:47:31.444Z,935.57
2018-08-21T09:48:31.449Z,935.57
2018-08-21T09:49:31.461Z,935.57
2018-08-21T09:50:31.476Z,935.52
2018-08-21T09:51:31.709Z,935.49
2018-08-21T09:52:31.496Z,935.52
2018-08-21T09:53:31.495Z,935.51
2018-08-21T09:54:31.513Z,935.53
2018-08-21T09:55:31.515Z,935.52
2018-08-21T09:56:31.967Z,935.55
2018-08-21T09:57:31.550Z,935.52
2018-08-21T09:58:31.565Z,935.53
2018-08-21T09:59:31.701Z,935.60
2018-08-21T10:00:31.589Z,935.60
2018-08-21T10:01:31.875Z,935.63
2018-08-21T10:02:31.603Z,935.58
2018-08-21T10:03:31.618Z,935.61
2018-08-21T10:04:31.637Z,935.61
2018-08-21T10:10:31.834Z,935.73
2018-08-21T10:11:31.764Z,935.73
2018-08-21T10:12:31.738Z,935.71
2018-08-21T10:13:31.895Z,935.68
2018-08-21T10:14:31.888Z,935.61
2018-08-21T10:15:31.903Z,935.54
2018-08-21T10:16:31.917Z,935.45
2018-08-21T10:17:31.801Z,935.44
2018-08-21T10:18:31.924Z,935.43
2018-08-21T10:19:31.828Z,935.38
2018-08-21T10:20:31.848Z,935.45
2018-08-21T10:21:31.865Z,935.48
2018-08-21T10:22:31.997Z,935.52
2018-08-21T10:23:31.977Z,935.58
2018-08-21T10:24:32.029Z,935.60
2018-08-21T10:25:31.933Z,935.62
2018-08-21T10:26:31.926Z,935.64
2018-08-21T10:27:31.952Z,935.69
2018-08-21T10:28:32.068Z,935.72
2018-08-21T10:29:32.101Z,935.78
2018-08-21T10:30:32.112Z,935.88
2018-08-21T10:31:32.022Z,935.87
2018-08-21T10:32:32.144Z,935.90
2018-08-21T10:33:32.127Z,935.92
2018-08-21T10:34:32.050Z,935.87
2018-08-21T10:35:32.186Z,935.87
2018-08-21T10:36:32.197Z,935.82
2018-08-21T10:37:32.084Z,935.82
2018-08-21T10:38:32.377Z,935.81
2018-08-21T10:39:32.241Z,935.82
2018-08-21T10:40:32.132Z,935.83
2018-08-21T10:41:32.144Z,935.86
2018-08-21T10:42:32.286Z,935.86
2018-08-21T10:43:32.449Z,935.90
2018-08-21T10:44:32.318Z,935.91
2018-08-21T10:45:32.332Z,935.98
2018-08-21T10:46:32.234Z,935.97
2018-08-21T10:47:32.227Z,936.05
2018-08-21T10:48:32.468Z,936.01
2018-08-21T10:49:32.276Z,936.04
2018-08-21T10:50:32.272Z,936.04
2018-08-21T10:51:32.417Z,936.07
2018-08-21T10:52:32.300Z,936.11
2018-08-21T10:53:32.442Z,936.15
2018-08-21T10:54:32.462Z,936.18
2018-08-21T10:55:32.478Z,936.22
2018-08-21T10:56:32.377Z,936.26
2018-08-21T10:57:32.373Z,936.31
2018-08-21T10:58:32.503Z,936.29
2018-08-21T10:59:32.404Z,936.31
2018-08-21T11:00:32.539Z,936.38
2018-08-21T11:01:32.558Z,936.37
2018-08-21T11:02:32.567Z,936.41
2018-08-21T11:03:32.713Z,936.45
2018-08-21T11:04:32.466Z,936.45
2018-08-21T11:05:32.483Z,936.44
2018-08-21T11:06:32.628Z,936.42
2018-08-21T11:07:32.637Z,936.42
2018-08-21T11:08:32.909Z,936.45
2018-08-21T11:09:32.554Z,936.39
2018-08-21T11:10:32.685Z,936.41
2018-08-21T11:11:32.582Z,936.44
2018-08-21T11:12:32.748Z,936.43
2018-08-21T11:13:32.989Z,936.43
2018-08-21T11:14:32.748Z,936.45
2018-08-21T11:15:32.659Z,936.46
2018-08-21T11:16:32.656Z,936.47
2018-08-21T11:17:32.707Z,936.49
2018-08-21T11:18:32.967Z,936.53
2018-08-21T11:19:32.711Z,936.52
2018-08-21T11:20:32.858Z,936.46
2018-08-21T11:21:32.796Z,936.49
2018-08-21T11:22:32.891Z,936.51
2018-08-21T11:23:32.937Z,936.54
2018-08-21T11:24:32.924Z,936.56
2018-08-21T11:25:32.947Z,936.57
2018-08-21T11:26:32.845Z,936.58
2018-08-21T11:27:32.852Z,936.61
2018-08-21T11:28:33.081Z,936.60
2018-08-21T11:29:32.941Z,936.59
2018-08-21T11:30:33.029Z,936.59
2018-08-21T11:31:33.056Z,936.64
2018-08-21T11:32:32.953Z,936.63
2018-08-21T11:33:33.222Z,936.65
2018-08-21T11:34:33.018Z,936.65
2018-08-21T11:35:33.012Z,936.71
2018-08-21T11:36:33.017Z,936.68
2018-08-21T11:37:33.161Z,936.71
2018-08-21T11:38:33.198Z,936.73
2018-08-21T11:39:33.085Z,936.71
2018-08-21T11:40:33.218Z,936.72
2018-08-21T11:41:33.115Z,936.81
2018-08-21T11:42:33.255Z,936.77
2018-08-21T11:43:33.404Z,936.75
2018-08-21T11:44:33.315Z,936.75
2018-08-21T11:45:33.307Z,936.76
2018-08-21T11:46:33.215Z,936.78
2018-08-21T11:47:33.215Z,936.77
2018-08-21T11:48:33.620Z,936.81
2018-08-21T11:49:33.385Z,936.80
2018-08-21T11:50:33.321Z,936.82
2018-08-21T11:51:33.429Z,936.80
2018-08-21T11:52:33.326Z,936.83
2018-08-21T11:53:33.591Z,936.79
2018-08-21T11:54:33.363Z,936.82
2018-08-21T11:55:33.497Z,936.86
2018-08-21T11:56:33.393Z,936.84
2018-08-21T11:57:33.421Z,936.87
2018-08-21T11:58:33.539Z,936.83
2018-08-21T11:59:33.463Z,936.80
2018-08-21T12:00:33.597Z,936.83
2018-08-21T12:01:33.619Z,936.81
2018-08-21T12:02:33.629Z,936.85
2018-08-21T12:03:33.756Z,936.84
2018-08-21T12:04:33.545Z,936.86
2018-08-21T12:05:33.569Z,936.83
2018-08-21T12:06:33.581Z,936.82
2018-08-21T12:07:33.597Z,936.81
2018-08-21T12:08:33.894Z,936.83
2018-08-21T12:09:33.644Z,936.84
2018-08-21T12:10:33.779Z,936.82
2018-08-21T12:11:33.671Z,936.85
2018-08-21T12:12:33.699Z,936.80
2018-08-21T12:13:33.988Z,936.84
2018-08-21T12:14:33.733Z,936.84
2018-08-21T12:15:33.871Z,936.86
2018-08-21T12:16:33.891Z,936.86
2018-08-21T12:17:33.787Z,936.91
2018-08-21T12:18:33.927Z,936.93
2018-08-21T12:19:34.094Z,936.93
2018-08-21T12:20:33.966Z,936.95
2018-08-21T12:21:33.862Z,936.96
2018-08-21T12:22:34.003Z,936.98
2018-08-21T12:23:34.020Z,936.97
2018-08-21T12:24:34.012Z,936.91
2018-08-21T12:25:34.057Z,936.94
2018-08-21T12:26:34.073Z,936.95
2018-08-21T12:27:33.972Z,936.97
2018-08-21T12:28:33.991Z,936.94
2018-08-21T12:29:34.126Z,936.99
2018-08-21T12:30:34.026Z,936.97
2018-08-21T12:31:34.038Z,937.00
2018-08-21T12:32:34.179Z,937.00
2018-08-21T12:33:34.203Z,937.00
2018-08-21T12:34:34.246Z,936.98
2018-08-21T12:35:34.239Z,936.96
2018-08-21T12:36:34.251Z,936.95
2018-08-21T12:37:34.158Z,936.98
2018-08-21T12:38:34.160Z,936.99